Time;durP1;ratioP1;P1;durP2;ratioP2;P2;SDS_P1;SDS_P2;PMS_P1;PMS_P2;Temp;Humidity;BMP_temperature;BMP_pressure;BME280_temperature;BME280_humidity;BME280_pressure;Samples;Min_cycle;Max_cycle;Signal;HPM_P1;HPM_P2
2022/04/08 00:02:17;;;;;;;0.10;0.10;;;;;;;9.12;71.67;97489.69;4990055;28;20227;-76
2022/04/08 00:04:53;;;;;;;0.10;0.10;;;;;;;9.07;71.45;97475.75;4975123;28;20262;-74
2022/04/08 00:07:21;;;;;;;0.10;0.10;;;;;;;9.00;72.13;97477.72;4988955;28;20213;-74
2022/04/08 00:09:49;;;;;;;0.20;0.20;;;;;;;8.97;72.18;97473.44;4986886;28;20209;-78
2022/04/08 00:12:17;;;;;;;0.20;0.20;;;;;;;9.05;71.71;97501.31;4989351;28;20213;-75
2022/04/08 00:14:46;;;;;;;0.20;0.20;;;;;;;9.05;71.49;97501.31;4988456;28;20584;-77
2022/04/08 00:17:14;;;;;;;0.20;0.20;;;;;;;9.04;71.21;97494.31;4988898;28;20209;-76
2022/04/08 00:19:42;;;;;;;0.10;0.10;;;;;;;9.03;70.88;97482.91;4986240;28;20216;-81
2022/04/08 00:22:11;;;;;;;0.20;0.20;;;;;;;8.81;72.27;97463.41;4991271;28;20720;-76
2022/04/08 00:24:39;;;;;;;0.20;0.20;;;;;;;8.88;71.91;97492.16;4986746;28;20233;-74
2022/04/08 00:27:07;;;;;;;0.10;0.10;;;;;;;8.83;72.12;97490.56;4991139;28;20209;-74
2022/04/08 00:29:35;;;;;;;0.20;0.20;;;;;;;8.79;72.49;97488.94;4973864;28;20217;-76
2022/04/08 00:32:04;;;;;;;0.20;0.20;;;;;;;8.76;72.48;97497.81;4990282;28;20216;-74
2022/04/08 00:34:32;;;;;;;0.20;0.20;;;;;;;8.76;72.54;97500.44;4988683;28;20232;-74
2022/04/08 00:37:01;;;;;;;0.20;0.20;;;;;;;8.75;72.75;97497.84;4991908;28;20209;-77
2022/04/08 00:39:28;;;;;;;0.20;0.20;;;8.80;99.90;;;8.71;72.73;97490.94;4992139;28;20212;-74
2022/04/08 00:42:00;;;;;;;0.20;0.20;;;8.70;99.90;;;8.70;73.10;97502.41;4990823;28;20220;-75
2022/04/08 00:44:31;;;;;;;0.20;0.20;;;8.70;99.90;;;8.69;73.02;97500.69;4986705;28;20220;-74
2022/04/08 00:46:59;;;;;;;0.10;0.10;;;;;;;8.66;73.33;97510.41;4993846;28;20212;-74
2022/04/08 00:49:27;;;;;;;0.20;0.20;;;;;;;8.76;73.34;97528.56;4993771;28;20221;-75
2022/04/08 00:51:56;;;;;;;0.20;0.20;;;;;;;8.68;74.20;97514.75;4987192;28;20209;-75
2022/04/08 00:54:24;;;;;;;0.20;0.20;;;;;;;8.60;74.62;97518.47;4974786;28;20220;-74
2022/04/08 00:56:53;;;;;;;0.20;0.20;;;8.70;99.90;;;8.60;74.83;97560.63;4978365;28;20212;-75
2022/04/08 00:59:21;;;;;;;0.20;0.20;;;;;;;8.71;74.42;97576.13;4981303;28;20204;-74
2022/04/08 01:01:49;;;;;;;0.20;0.20;;;;;;;8.69;74.79;97571.78;4971418;28;20236;-76
2022/04/08 01:04:21;;;;;;;0.20;0.20;;;8.40;99.90;;;8.55;75.58;97556.41;4985683;28;20217;-74
2022/04/08 01:06:49;;;;;;;0.20;0.20;;;;;;;8.61;75.50;97570.25;4988126;28;20223;-74
2022/04/08 01:09:18;;;;;;;0.20;0.20;;;;;;;8.62;75.15;97584.28;4977625;28;20204;-75
2022/04/08 01:11:46;;;;;;;0.20;0.20;;;;;;;8.55;75.45;97570.44;4972190;28;20213;-75
2022/04/08 01:14:16;;;;;;;0.10;0.10;;;8.60;99.90;;;8.69;74.80;97587.59;4971463;28;20227;-74
2022/04/08 01:16:45;;;;;;;0.10;0.10;;;8.60;99.90;;;8.56;75.16;97595.00;4975558;28;20211;-75
2022/04/08 01:19:14;;;;;;;0.20;0.20;;;;;;;8.51;75.34;97581.09;4979976;28;20205;-74
2022/04/08 01:21:42;;;;;;;0.20;0.20;;;;;;;8.47;75.74;97593.47;4992537;28;20263;-75
2022/04/08 01:24:14;;;;;;;0.20;0.20;;;8.60;99.90;;;8.58;75.02;97604.56;4993802;28;20237;-79
2022/04/08 01:26:42;;;;;;;0.20;0.20;;;;;;;8.57;74.96;97583.56;4976610;28;20215;-77
2022/04/08 01:29:10;;;;;;;0.20;0.20;;;;;;;8.44;75.84;97588.31;4980501;28;20201;-78
2022/04/08 01:31:43;;;;;;;0.20;0.20;;;;;;;8.53;75.66;97611.75;4987295;28;20205;-82
2022/04/08 01:34:12;;;;;;;0.20;0.20;;;8.50;99.90;;;8.33;76.66;97599.13;4985892;28;20229;-74
2022/04/08 01:36:40;;;;;;;0.20;0.20;;;8.50;99.90;;;8.45;76.42;97628.66;4988378;28;20196;-74
2022/04/08 01:39:09;;;;;;;0.20;0.20;;;;;;;8.41;76.50;97630.50;4971637;28;20235;-83
2022/04/08 01:41:37;;;;;;;0.10;0.10;;;;;;;8.40;76.66;97639.31;4986058;28;20220;-74
2022/04/08 01:44:05;;;;;;;0.20;0.20;;;8.40;99.90;;;8.41;76.47;97627.03;4983960;28;20231;-74
2022/04/08 01:46:33;;;;;;;0.20;0.20;;;8.70;99.90;;;8.38;77.11;97642.91;4991681;28;20239;-74
2022/04/08 01:49:01;;;;;;;0.20;0.20;;;;;;;8.30;77.43;97633.41;4989940;28;20201;-77
2022/04/08 01:51:29;;;;;;;0.20;0.20;;;8.30;99.90;;;8.28;78.14;97665.94;4989687;28;20217;-75
2022/04/08 01:53:57;;;;;;;0.20;0.20;;;;;;;8.24;78.43;97664.28;4983979;28;20236;-74
2022/04/08 01:56:25;;;;;;;0.20;0.20;;;;;;;8.27;78.50;97682.63;4976865;28;20212;-74
2022/04/08 01:58:53;;;;;;;0.10;0.10;;;;;;;8.15;79.42;97680.31;4973712;28;20208;-79
2022/04/08 02:01:22;;;;;;;0.20;0.20;;;;;;;8.17;79.43;97684.63;4990156;28;20224;-74
2022/04/08 02:03:51;;;;;;;0.20;0.20;;;;;;;8.08;80.00;97686.63;4990328;28;20239;-75
2022/04/08 02:06:19;;;;;;;0.10;0.10;;;;;;;8.17;80.29;97720.63;4957533;28;20201;-75
2022/04/08 02:08:49;;;;;;;0.20;0.20;;;8.10;99.90;;;8.11;80.55;97736.56;4973892;28;20212;-74
2022/04/08 02:11:18;;;;;;;0.20;0.20;;;;;;;8.20;80.54;97752.13;4989659;28;20211;-74
2022/04/08 02:13:46;;;;;;;0.20;0.20;;;;;;;8.06;81.05;97741.94;4994687;28;20228;-77
2022/04/08 02:16:14;;;;;;;0.10;0.10;;;;;;;7.97;82.14;97764.06;4989001;28;20209;-75
2022/04/08 02:18:43;;;;;;;0.20;0.20;;;;;;;7.90;82.86;97783.53;4989510;28;20205;-75
2022/04/08 02:21:11;;;;;;;0.30;0.30;;;;;;;8.00;82.65;97794.72;4991737;28;20211;-74
2022/04/08 02:23:39;;;;;;;0.17;0.17;;;8.00;99.90;;;7.93;82.80;97793.13;4992344;28;20740;-74
2022/04/08 02:26:10;;;;;;;0.20;0.20;;;;;;;8.03;82.80;97827.09;4971763;28;20220;-73
2022/04/08 02:28:38;;;;;;;0.20;0.20;;;;;;;7.93;82.86;97824.69;4977584;28;20208;-79
2022/04/08 02:31:06;;;;;;;0.20;0.20;;;7.70;99.90;;;7.92;83.26;97841.38;4989191;28;20212;-74
2022/04/08 02:33:35;;;;;;;0.20;0.20;;;;;;;7.93;83.31;97848.38;4995308;28;20291;-77
2022/04/08 02:36:04;;;;;;;0.20;0.20;;;7.90;99.90;;;7.83;84.13;97855.59;4989958;28;20220;-77
2022/04/08 02:38:33;;;;;;;0.20;0.20;;;;;;;7.74;84.78;97862.78;4994474;28;20212;-75
2022/04/08 02:41:01;;;;;;;0.20;0.20;;;;;;;7.77;85.00;97868.00;4985559;28;20285;-75
2022/04/08 02:43:29;;;;;;;0.20;0.20;;;;;;;7.65;85.17;97872.59;4973901;28;20221;-74
2022/04/08 02:45:57;;;;;;;0.20;0.20;;;;;;;7.66;85.60;97892.75;4993583;28;20204;-74
2022/04/08 02:48:25;;;;;;;0.20;0.20;;;;;;;7.61;86.52;97909.50;4993356;28;20211;-76
2022/04/08 02:50:53;;;;;;;0.20;0.20;;;;;;;7.59;86.65;97911.31;4988433;28;20212;-77
2022/04/08 02:53:22;;;;;;;0.20;0.20;;;;;;;7.59;86.71;97925.31;4960955;28;20204;-74
2022/04/08 02:55:50;;;;;;;0.10;0.10;;;;;;;7.67;86.56;97954.97;4985160;28;20206;-74
2022/04/08 02:58:18;;;;;;;0.20;0.20;;;;;;;7.63;86.93;97952.44;4993130;28;20209;-75
2022/04/08 03:00:46;;;;;;;0.20;0.20;;;;;;;7.61;87.01;97957.72;4984158;28;20208;-74
2022/04/08 03:03:14;;;;;;;0.20;0.20;;;;;;;7.58;87.51;97970.06;4988924;28;20233;-77
2022/04/08 03:05:42;;;;;;;0.20;0.20;;;;;;;7.46;88.40;97981.66;4982411;28;20247;-76
2022/04/08 03:08:10;;;;;;;0.10;0.10;;;;;;;7.49;88.65;97999.16;4990968;28;20216;-81
2022/04/08 03:10:39;;;;;;;0.20;0.20;;;;;;;7.46;88.86;98009.72;4987732;28;20206;-76
2022/04/08 03:13:07;;;;;;;0.20;0.20;;;;;;;7.46;88.78;98013.22;4986289;28;20231;-74
2022/04/08 03:15:35;;;;;;;0.10;0.10;;;;;;;7.35;89.47;98021.28;4991924;28;20243;-74
2022/04/08 03:18:04;;;;;;;0.20;0.20;;;;;;;7.20;90.82;98026.78;4986704;28;20200;-76
2022/04/08 03:20:32;;;;;;;0.20;0.20;;;;;;;7.18;91.83;98067.13;4969530;28;20223;-76
2022/04/08 03:23:00;;;;;;;0.20;0.20;;;;;;;7.10;92.44;98074.28;4987969;28;20235;-79
2022/04/08 03:25:28;;;;;;;0.20;0.20;;;;;;;7.23;92.32;98105.59;4985729;28;20237;-78
2022/04/08 03:27:56;;;;;;;0.20;0.20;;;;;;;7.42;91.26;98123.72;4968563;28;20212;-75
2022/04/08 03:30:27;;;;;;;0.20;0.20;;;;;;;7.38;90.83;98113.25;4987002;28;20211;-75
2022/04/08 03:32:55;;;;;;;0.20;0.20;;;;;;;7.14;92.37;98089.09;4975791;28;20211;-75
2022/04/08 03:35:24;;;;;;;0.10;0.10;;;;;;;7.18;92.73;98124.97;4990218;28;20231;-74
2022/04/08 03:37:52;;;;;;;0.20;0.20;;;;;;;7.13;93.04;98135.53;4990188;28;20212;-75
2022/04/08 03:40:20;;;;;;;0.20;0.20;;;;;;;7.23;92.96;98142.41;4995908;28;20196;-77
2022/04/08 03:42:48;;;;;;;0.10;0.10;;;;;;;7.13;93.72;98138.16;4994082;28;20228;-74
2022/04/08 03:45:16;;;;;;;0.20;0.20;;;;;;;7.10;94.08;98156.59;4992366;28;20228;-74
2022/04/08 03:47:46;;;;;;;0.10;0.10;;;;;;;7.05;95.22;98176.81;5001343;28;20193;-77
2022/04/08 03:50:14;;;;;;;0.20;0.20;;;;;;;6.97;95.91;98184.81;4990235;28;20209;-75
2022/04/08 03:52:43;;;;;;;0.20;0.20;;;7.10;99.90;;;6.82;96.67;98177.09;4992385;28;20205;-75
2022/04/08 03:55:11;;;;;;;0.20;0.20;;;;;;;7.06;96.99;98223.22;4987115;28;20228;-74
2022/04/08 03:57:39;;;;;;;0.20;0.20;;;;;;;7.08;96.45;98216.19;4993177;28;20216;-74
2022/04/08 04:00:08;;;;;;;0.17;0.17;;;7.00;99.90;;;6.94;97.41;98207.63;4993739;28;20557;-74
2022/04/08 04:02:36;;;;;;;0.20;0.20;;;;;;;6.78;99.21;98227.06;4992096;28;20220;-74
2022/04/08 04:05:05;;;;;;;0.20;0.20;;;6.60;99.90;;;6.97;99.64;98257.50;4992995;28;20223;-74
2022/04/08 04:07:33;;;;;;;0.20;0.20;;;6.90;99.90;;;6.78;100.00;98254.19;4993472;28;20204;-75
2022/04/08 04:10:02;;;;;;;0.20;0.20;;;;;;;7.04;99.65;98269.69;4993502;28;20209;-76
2022/04/08 04:12:30;;;;;;;0.20;0.20;;;;;;;6.91;100.00;98261.06;4977476;28;20204;-84
2022/04/08 04:14:58;;;;;;;0.20;0.20;;;;;;;6.82;100.00;98263.78;4993333;28;20685;-75
2022/04/08 04:17:28;;;;;;;0.20;0.20;;;;;;;6.85;100.00;98284.78;4992897;28;20208;-77
2022/04/08 04:19:56;;;;;;;0.20;0.20;;;;;;;6.90;100.00;98289.97;4993373;28;20207;-75
2022/04/08 04:22:24;;;;;;;0.20;0.20;;;;;;;6.82;100.00;98297.94;4993134;28;20216;-76
2022/04/08 04:24:52;;;;;;;0.20;0.20;;;;;;;6.72;100.00;98304.19;4992066;28;20732;-76
2022/04/08 04:27:20;;;;;;;0.20;0.20;;;;;;;6.71;100.00;98310.31;4991659;28;20200;-77
2022/04/08 04:29:48;;;;;;;0.20;0.20;;;;;;;6.82;100.00;98334.72;4974457;28;20204;-75
2022/04/08 04:32:19;;;;;;;0.10;0.10;;;;;;;6.78;100.00;98327.75;4990240;28;20197;-74
2022/04/08 04:34:47;;;;;;;0.20;0.20;;;;;;;6.82;100.00;98336.47;4990575;28;20269;-75
2022/04/08 04:37:16;;;;;;;0.20;0.20;;;6.90;99.90;;;6.82;100.00;98318.09;4968030;28;20201;-75
2022/04/08 04:39:43;;;;;;;0.20;0.20;;;6.90;99.90;;;6.71;100.00;98326.94;4991358;28;20662;-73
2022/04/08 04:42:12;;;;;;;0.20;0.20;;;;;;;6.78;100.00;98340.00;4983805;28;20199;-74
2022/04/08 04:44:40;;;;;;;0.20;0.20;;;;;;;6.82;100.00;98339.97;4993040;28;20239;-73
2022/04/08 04:47:08;;;;;;;0.20;0.20;;;;;;;6.68;100.00;98340.09;4992093;28;20216;-74
2022/04/08 04:49:36;;;;;;;0.20;0.20;;;;;;;6.58;100.00;98354.19;4976284;28;20204;-74
2022/04/08 04:52:05;;;;;;;0.20;0.20;;;6.70;99.90;;;6.55;100.00;98362.09;4993415;28;20216;-74
2022/04/08 04:54:33;;;;;;;0.10;0.10;;;;;;;6.61;100.00;98371.69;4993119;28;20220;-74
2022/04/08 04:57:02;;;;;;;0.20;0.20;;;;;;;6.56;100.00;98368.22;4975765;28;20208;-74
2022/04/08 04:59:30;;;;;;;0.20;0.20;;;;;;;6.47;100.00;98377.00;4975024;28;20205;-74
2022/04/08 05:01:58;;;;;;;0.20;0.20;;;;;;;6.40;100.00;98394.56;4985448;28;20204;-75
2022/04/08 05:04:26;;;;;;;0.20;0.20;;;;;;;6.41;100.00;98398.94;4992217;28;20236;-74
2022/04/08 05:06:55;;;;;;;0.20;0.20;;;;;;;6.43;100.00;98412.91;4992981;28;20203;-74
2022/04/08 05:09:23;;;;;;;0.20;0.20;;;;;;;6.39;100.00;98415.56;4993563;28;20239;-74
2022/04/08 05:11:51;;;;;;;0.20;0.20;;;;;;;6.52;100.00;98434.78;4992909;28;20216;-74
2022/04/08 05:14:22;;;;;;;0.20;0.20;;;;;;;6.45;100.00;98425.16;4975965;28;20233;-75
2022/04/08 05:16:51;;;;;;;0.20;0.20;;;;;;;6.44;100.00;98445.28;4991939;28;20220;-74
2022/04/08 05:19:19;;;;;;;0.30;0.30;;;;;;;6.54;100.00;98444.38;4975429;28;20219;-74
2022/04/08 05:21:47;;;;;;;0.28;0.28;;;;;;;6.61;100.00;98447.84;4992756;28;20208;-74
2022/04/08 05:24:16;;;;;;;0.40;0.40;;;;;;;6.55;100.00;98459.25;4992531;28;20232;-74
2022/04/08 05:26:44;;;;;;;0.20;0.20;;;;;;;6.61;100.00;98463.59;4992716;28;20200;-74
2022/04/08 05:29:12;;;;;;;0.20;0.20;;;;;;;6.57;100.00;98461.88;4991702;28;20212;-73
2022/04/08 05:31:40;;;;;;;0.20;0.20;;;;;;;6.61;100.00;98468.84;4992382;28;20200;-74
2022/04/08 05:34:09;;;;;;;0.20;0.20;;;;;;;6.58;100.00;98476.75;4992096;28;20588;-76
2022/04/08 05:36:37;;;;;;;0.20;0.20;;;;;;;6.53;100.00;98482.03;4992751;28;20197;-76
2022/04/08 05:39:05;;;;;;;0.10;0.10;;;;;;;6.46;100.00;98493.41;4988085;28;20212;-75
2022/04/08 05:41:33;;;;;;;0.20;0.20;;;;;;;6.49;100.00;98490.75;4992027;28;20205;-77
2022/04/08 05:44:02;;;;;;;0.20;0.20;;;;;;;6.51;100.00;98496.91;4989617;28;20239;-76
2022/04/08 05:46:30;;;;;;;0.20;0.20;;;;;;;6.51;100.00;98494.28;4990751;28;20200;-75
2022/04/08 05:49:02;;;;;;;0.20;0.20;;;;;;;6.61;100.00;98495.97;4988189;28;20212;-75
2022/04/08 05:51:30;;;;;;;0.20;0.20;;;;;;;6.65;100.00;98495.06;4990805;28;20201;-75
2022/04/08 05:54:08;;;;;;;0.20;0.20;;;6.70;99.90;;;6.68;100.00;98496.81;4989731;28;20224;-78
2022/04/08 05:56:36;;;;;;;0.20;0.20;;;;;;;6.70;100.00;98495.03;4990126;28;20597;-77
2022/04/08 05:59:04;;;;;;;0.20;0.20;;;;;;;6.76;100.00;98504.63;4989544;28;20581;-78
2022/04/08 06:01:32;;;;;;;0.20;0.20;;;;;;;6.74;100.00;98518.66;4989320;28;20205;-76
2022/04/08 06:04:01;;;;;;;0.20;0.20;;;;;;;6.79;100.00;98520.38;4990649;28;20236;-75
2022/04/08 06:06:29;;;;;;;2.78;2.67;;;;;;;6.84;100.00;98513.34;4973939;28;20200;-76
2022/04/08 06:09:01;;;;;;;0.20;0.20;;;;;;;6.81;100.00;98514.22;4942053;28;20200;-77
2022/04/08 06:11:30;;;;;;;0.20;0.20;;;;;;;6.80;100.00;98509.88;4975986;28;20201;-75
2022/04/08 06:13:58;;;;;;;0.20;0.20;;;;;;;6.79;100.00;98515.13;4989355;28;20224;-75
2022/04/08 06:16:26;;;;;;;0.20;0.20;;;;;;;6.84;100.00;98529.97;4989322;28;20208;-77
2022/04/08 06:18:55;;;;;;;0.20;0.20;;;;;;;6.92;100.00;98535.19;4972504;28;20204;-75
2022/04/08 06:21:24;;;;;;;0.20;0.20;;;;;;;6.98;100.00;98540.38;4990400;28;20661;-75
2022/04/08 06:23:52;;;;;;;0.20;0.20;;;;;;;7.02;100.00;98542.13;4991303;28;20231;-76
2022/04/08 06:26:20;;;;;;;0.20;0.20;;;;;;;7.07;100.00;98548.22;4991986;28;20204;-74
2022/04/08 06:28:48;;;;;;;0.20;0.20;;;;;;;7.07;100.00;98549.09;4992058;28;20200;-75
2022/04/08 06:31:16;;;;;;;0.20;0.20;;;;;;;7.11;100.00;98549.94;4991568;28;20200;-76
2022/04/08 06:33:45;;;;;;;0.20;0.20;;;;;;;7.14;100.00;98556.91;4991149;28;20232;-75
2022/04/08 06:36:13;;;;;;;0.20;0.20;;;7.20;99.90;;;7.17;100.00;98551.66;4991692;28;20215;-75
2022/04/08 06:38:41;;;;;;;0.20;0.20;;;;;;;7.21;100.00;98543.72;4991582;28;20657;-75
2022/04/08 06:41:10;;;;;;;0.20;0.20;;;;;;;7.24;100.00;98541.06;4991992;28;20204;-77
2022/04/08 06:43:38;;;;;;;0.20;0.20;;;;;;;7.25;100.00;98532.28;4991400;28;20239;-75
2022/04/08 06:46:06;;;;;;;0.20;0.20;;;;;;;7.29;100.00;98531.38;4990994;28;20197;-75
2022/04/08 06:48:35;;;;;;;0.20;0.20;;;;;;;7.32;100.00;98523.47;4994129;28;20201;-75
2022/04/08 06:51:06;;;;;;;0.20;0.20;;;;;;;7.35;100.00;98526.06;4986800;28;20207;-77
2022/04/08 06:53:34;;;;;;;0.20;0.20;;;7.40;99.90;;;7.41;100.00;98513.75;4993845;28;20204;-76
2022/04/08 06:56:03;;;;;;;0.10;0.10;;;;;;;7.45;100.00;98518.97;4969374;28;20215;-76
2022/04/08 06:58:33;;;;;;;0.20;0.20;;;7.50;99.90;;;7.47;100.00;98511.94;4960420;28;20201;-75
2022/04/08 07:01:01;;;;;;;0.20;0.20;;;;;;;7.50;100.00;98516.31;4993041;28;20665;-75
2022/04/08 07:03:29;;;;;;;0.20;0.20;;;;;;;7.55;100.00;98511.88;4994386;28;20209;-76
2022/04/08 07:05:57;;;;;;;0.20;0.20;;;7.60;99.90;;;7.54;100.00;98505.75;4992782;28;20215;-75
2022/04/08 07:08:27;;;;;;;0.20;0.20;;;;;;;7.60;100.00;98507.44;4988718;28;20208;-82
2022/04/08 07:10:55;;;;;;;0.20;0.20;;;;;;;7.63;100.00;98505.66;4975960;28;20201;-77
2022/04/08 07:13:23;;;;;;;0.20;0.20;;;;;;;7.71;100.00;98508.19;4986507;28;20212;-79
2022/04/08 07:15:52;;;;;;;0.10;0.10;;;;;;;7.77;100.00;98504.63;4983604;28;20219;-78
2022/04/08 07:18:21;;;;;;;0.20;0.20;;;;;;;7.88;100.00;98521.22;4985627;28;20219;-75
2022/04/08 07:20:49;;;;;;;0.20;0.20;;;;;;;7.94;100.00;98508.00;4991801;28;20209;-83
2022/04/08 07:23:18;;;;;;;0.13;0.13;;;;;;;7.99;100.00;98501.78;4988778;28;20201;-79
2022/04/08 07:25:46;;;;;;;0.20;0.20;;;;;;;8.07;100.00;98495.56;4989323;28;20232;-80
2022/04/08 07:28:14;;;;;;;0.20;0.20;;;;;;;8.10;100.00;98493.75;4991618;28;20227;-80
2022/04/08 07:30:42;;;;;;;0.10;0.10;;;;;;;8.13;100.00;98484.94;4994920;28;20661;-79
2022/04/08 07:33:11;;;;;;;0.20;0.20;;;;;;;8.19;100.00;98479.59;4985244;28;20227;-79
2022/04/08 07:35:41;;;;;;;0.10;0.10;;;;;;;8.22;100.00;98495.38;4991732;28;20227;-76
2022/04/08 07:38:14;;;;;;;0.20;0.20;;;;;;;8.23;100.00;98476.91;4979567;28;20215;-77
2022/04/08 07:40:42;;;;;;;0.20;0.20;;;;;;;8.29;100.00;98473.34;4995353;28;20201;-75
2022/04/08 07:43:10;;;;;;;0.20;0.20;;;;;;;8.36;100.00;98466.25;4991365;28;20688;-77
2022/04/08 07:45:39;;;;;;;0.20;0.20;;;;;;;8.43;100.00;98479.31;4998619;28;20243;-75
2022/04/08 07:48:07;;;;;;;0.20;0.20;;;8.60;99.90;;;8.50;100.00;98483.63;5009289;28;20207;-75
2022/04/08 07:50:37;;;;;;;0.10;0.10;;;;;;;8.59;100.00;98469.44;4988616;28;20208;-78
2022/04/08 07:53:06;;;;;;;0.20;0.20;;;;;;;8.60;100.00;98458.00;4977723;28;20793;-76
2022/04/08 07:55:35;;;;;;;0.10;0.10;;;;;;;8.58;100.00;98441.34;4983670;28;20235;-77
2022/04/08 07:58:04;;;;;;;0.20;0.20;;;;;;;8.53;100.00;98407.19;4972700;28;20199;-77
2022/04/08 08:00:32;;;;;;;0.20;0.20;;;;;;;8.61;100.00;98407.06;4986538;28;20215;-78
2022/04/08 08:03:00;;;;;;;0.20;0.20;;;;;;;8.63;100.00;98408.78;4987155;28;20205;-79
2022/04/08 08:05:31;;;;;;;0.20;0.20;;;;;;;8.65;100.00;98392.94;4988176;28;20236;-73
2022/04/08 08:08:01;;;;;;;0.10;0.10;;;8.80;99.90;;;8.68;100.00;98384.13;4974264;28;20224;-74
2022/04/08 08:10:35;;;;;;;0.10;0.10;;;8.80;99.90;;;8.67;100.00;98372.72;4972816;28;20212;-74
2022/04/08 08:13:03;;;;;;;0.20;0.20;;;;;;;8.74;100.00;98378.75;4994015;28;20205;-73
2022/04/08 08:15:33;;;;;;;0.10;0.10;;;8.80;99.90;;;8.74;100.00;98368.22;4987038;28;20228;-73
2022/04/08 08:18:02;;;;;;;0.20;0.20;;;;;;;8.74;100.00;98373.47;4966632;28;20216;-74
2022/04/08 08:20:30;;;;;;;0.10;0.10;;;;;;;8.74;100.00;98371.72;4990265;28;20208;-76
2022/04/08 08:22:58;;;;;;;0.13;0.13;;;;;;;8.74;100.00;98392.78;4990430;28;20215;-79
2022/04/08 08:25:27;;;;;;;0.20;0.20;;;;;;;8.76;100.00;98398.03;4971453;28;20236;-79
2022/04/08 08:27:59;;;;;;;0.20;0.20;;;8.90;99.90;;;8.74;100.00;98398.06;4991005;28;20200;-76
2022/04/08 08:30:31;;;;;;;0.20;0.20;;;8.90;99.90;;;8.70;100.00;98404.28;4993743;28;20207;-75
2022/04/08 08:33:00;;;;;;;0.10;0.10;;;;;;;8.62;100.00;98430.75;4995522;28;20204;-75
2022/04/08 08:35:28;;;;;;;0.10;0.10;;;;;;;8.55;100.00;98429.09;4996894;28;20231;-78
2022/04/08 08:38:00;;;;;;;0.10;0.10;;;8.80;99.90;;;8.57;100.00;98436.97;4988597;28;20239;-81
2022/04/08 08:40:33;;;;;;;0.20;0.20;;;8.80;99.90;;;8.57;100.00;98443.13;4969513;28;20223;-80
2022/04/08 08:43:07;;;;;;;0.10;0.10;;;;;;;8.45;100.00;98437.16;4974276;28;20209;-79
2022/04/08 08:45:37;;;;;;;0.20;0.20;;;;;;;8.40;100.00;98470.59;4969254;28;20240;-79
2022/04/08 08:48:05;;;;;;;0.20;0.20;;;;;;;8.23;100.00;98487.44;4972079;28;20201;-81
2022/04/08 08:50:34;;;;;;;0.10;0.10;;;;;;;8.13;100.00;98498.97;4994177;28;20205;-79
2022/04/08 08:53:02;;;;;;;0.10;0.10;;;;;;;8.11;100.00;98510.44;4981854;28;20223;-75
2022/04/08 08:55:30;;;;;;;0.20;0.20;;;;;;;7.89;100.00;98513.31;4987945;28;20235;-79
2022/04/08 08:57:58;;;;;;;0.10;0.10;;;;;;;7.79;100.00;98524.78;4988757;28;20220;-77
2022/04/08 09:00:26;;;;;;;0.10;0.10;;;;;;;7.75;100.00;98528.34;4967749;28;20212;-77
2022/04/08 09:02:55;;;;;;;0.10;0.10;;;;;;;7.58;100.00;98538.16;4964950;28;20213;-76
2022/04/08 09:05:25;;;;;;;0.10;0.10;;;8.10;99.90;;;7.57;100.00;98560.06;4984603;28;20236;-78
2022/04/08 09:07:59;;;;;;;0.13;0.13;;;8.10;99.90;;;7.57;100.00;98584.63;4986766;28;20208;-75
2022/04/08 09:10:43;;;;;;;0.10;0.10;;;8.10;99.90;;;7.56;100.00;98605.69;4995672;28;20219;-78
2022/04/08 09:13:11;;;;;;;0.10;0.10;;;;;;;7.50;100.00;98624.13;4972387;28;20211;-75
2022/04/08 09:15:40;;;;;;;0.10;0.10;;;;;;;7.47;100.00;98639.94;4984819;28;20221;-75
2022/04/08 09:18:10;;;;;;;0.20;0.20;;;8.30;99.90;;;7.41;100.00;98647.88;4973291;28;20205;-76
2022/04/08 09:20:41;;;;;;;0.20;0.20;;;7.00;99.90;;;7.28;100.00;98657.59;4991092;28;20196;-75
2022/04/08 09:23:11;;;;;;;0.17;0.17;;;7.70;99.90;;;7.29;100.00;98676.00;4987430;28;20227;-75
2022/04/08 09:25:40;;;;;;;0.20;0.20;;;;;;;7.14;100.00;98688.34;4985085;28;20266;-73
2022/04/08 09:28:11;;;;;;;0.10;0.10;;;7.60;99.90;;;7.20;100.00;98696.19;4974766;28;20208;-73
2022/04/08 09:30:41;;;;;;;0.20;0.20;;;7.60;99.90;;;7.19;100.00;98704.97;4976768;28;20204;-74
2022/04/08 09:33:14;;;;;;;0.20;0.20;;;7.50;99.90;;;7.05;100.00;98715.53;4961392;28;20777;-74
2022/04/08 09:35:42;;;;;;;0.10;0.10;;;;;;;7.08;100.00;98728.69;4969825;28;20224;-73
2022/04/08 09:38:11;;;;;;;0.20;0.20;;;;;;;7.05;100.00;98742.69;4971762;28;20220;-74
2022/04/08 09:40:42;;;;;;;0.10;0.10;;;7.50;99.90;;;7.01;100.00;98747.97;4971371;28;20211;-73
2022/04/08 09:43:12;;;;;;;0.13;0.13;;;;;;;7.03;100.00;98757.59;4988452;28;20220;-74
2022/04/08 09:45:40;;;;;;;0.20;0.20;;;;;;;7.01;100.00;98771.63;4988806;28;20747;-73
2022/04/08 09:48:09;;;;;;;0.15;0.15;;;;;;;7.04;100.00;98785.63;4992791;28;20207;-73
2022/04/08 09:50:39;;;;;;;0.20;0.20;;;7.40;99.90;;;7.01;100.00;98792.66;4990572;28;20204;-74
2022/04/08 09:53:09;;;;;;;0.10;0.10;;;;;;;6.98;100.00;98793.53;4983889;28;20211;-74
2022/04/08 09:55:40;;;;;;;0.20;0.20;;;7.30;99.90;;;6.95;100.00;98804.06;4955426;28;20232;-74
2022/04/08 09:58:10;;;;;;;0.10;0.10;;;9.40;99.90;;;6.98;100.00;98819.81;4988081;28;20220;-73
2022/04/08 10:00:40;;;;;;;0.13;0.13;;;7.40;99.90;;;6.93;100.00;98824.22;4978262;28;20208;-73
2022/04/08 10:03:10;;;;;;;0.20;0.20;;;;;;;6.90;100.00;98824.22;4969945;28;20227;-74
2022/04/08 10:05:39;;;;;;;0.20;0.20;;;7.30;99.90;;;6.86;100.00;98830.34;4976812;28;20229;-73
2022/04/08 10:08:08;;;;;;;0.20;0.20;;;7.40;99.90;;;6.85;100.00;98836.47;4990722;28;20205;-75
2022/04/08 10:10:51;;;;;;;0.20;0.20;;;;;;;6.82;100.00;98833.00;4979249;28;20212;-75
2022/04/08 10:13:59;;;;;;;0.20;0.20;;;7.30;99.90;;;6.77;100.00;98837.38;4968633;28;20220;-74
2022/04/08 10:16:27;;;;;;;0.20;0.20;;;7.10;99.90;;;6.64;100.00;98831.25;4970986;28;20262;-74
2022/04/08 10:18:56;;;;;;;0.20;0.20;;;;;;;6.61;100.00;98832.13;4980791;28;20212;-74
2022/04/08 10:21:34;;;;;;;0.10;0.10;;;;;;;6.71;100.00;98841.75;4957763;28;20213;-76
2022/04/08 10:24:13;;;;;;;0.20;0.20;;;7.10;99.90;;;6.73;100.00;98832.13;4987499;28;20239;-76
2022/04/08 10:27:09;;;;;;;0.10;0.10;;;7.20;99.90;;;6.76;100.00;98847.00;4988491;28;20216;-76
2022/04/08 10:29:37;;;;;;;0.20;0.20;;;;;;;6.71;100.00;98833.00;4990402;28;20212;-75
2022/04/08 10:32:16;;;;;;;0.20;0.20;;;7.20;99.90;;;6.81;100.00;98845.25;4976381;28;20208;-74
2022/04/08 10:34:55;;;;;;;0.20;0.20;;;7.20;99.90;;;6.72;100.00;98853.16;4987660;28;20232;-75
2022/04/08 10:37:25;;;;;;;0.20;0.20;;;;;;;6.62;100.00;98843.53;4972435;28;20208;-75
2022/04/08 10:39:57;;;;;;;0.20;0.20;;;7.10;99.90;;;6.76;100.00;98861.91;4979662;28;20209;-75
2022/04/08 10:42:28;;;;;;;0.10;0.10;;;6.90;99.90;;;6.61;100.00;98847.03;4987100;28;20644;-76
2022/04/08 10:44:57;;;;;;;0.10;0.10;;;;;;;6.65;100.00;98860.16;4977820;28;20228;-75
2022/04/08 10:47:27;;;;;;;0.20;0.20;;;;;;;6.57;100.00;98848.78;4975430;28;20232;-76
2022/04/08 10:50:03;;;;;;;0.10;0.10;;;7.00;99.90;;;6.62;100.00;98857.53;4975830;28;20611;-76
2022/04/08 10:52:40;;;;;;;0.10;0.10;;;7.00;99.90;;;6.55;100.00;98862.78;4993058;28;20212;-76
2022/04/08 10:55:11;;;;;;;0.20;0.20;;;7.00;99.90;;;6.57;100.00;98861.91;4992978;28;20228;-76
2022/04/08 10:57:44;;;;;;;0.20;0.20;;;7.00;99.90;;;6.57;100.00;98859.28;4999158;28;20205;-76
2022/04/08 11:00:14;;;;;;;0.20;0.20;;;6.90;99.90;;;6.53;100.00;98849.66;4968764;28;20274;-75
2022/04/08 11:02:44;;;;;;;0.20;0.20;;;;;;;6.56;100.00;98854.03;4978381;28;20211;-76
2022/04/08 11:05:15;;;;;;;0.20;0.20;;;7.00;99.90;;;6.63;100.00;98861.91;4974387;28;20232;-76
2022/04/08 11:07:46;;;;;;;0.10;0.10;;;7.00;99.90;;;6.59;100.00;98854.03;4987851;28;20239;-77
2022/04/08 11:10:20;;;;;;;0.20;0.20;;;7.10;99.90;;;6.51;100.00;98850.53;4982362;28;20532;-76
2022/04/08 11:12:51;;;;;;;0.20;0.20;;;7.10;99.90;;;6.59;100.00;98865.41;4975905;28;20202;-75
2022/04/08 11:15:25;;;;;;;0.20;0.20;;;7.10;99.90;;;6.66;100.00;98868.91;4973019;28;20224;-74
2022/04/08 11:17:53;;;;;;;0.15;0.15;;;;;;;6.58;100.00;98860.16;4984317;28;20220;-75
2022/04/08 11:20:23;;;;;;;0.10;0.10;;;7.10;99.90;;;6.64;100.00;98857.53;4990340;28;20208;-77
2022/04/08 11:22:54;;;;;;;0.43;0.43;;;7.00;99.90;;;6.55;100.00;98828.66;4971266;28;20232;-76
2022/04/08 11:25:28;;;;;;;0.20;0.20;;;7.10;99.90;;;6.62;100.00;98823.38;4980721;28;20235;-77
2022/04/08 11:28:09;;;;;;;0.20;0.20;;;7.10;99.90;;;6.49;100.00;98790.09;4976863;28;20236;-75